Charlotte Roush — WDE5112 — position and weather

sailwx.info

Track history (hours):
 
Tides and Currents Weather Stations Pressure Air Temp Water Temp Dewpoint Dewpoint Depression Visibility Wind Speed Wind Dir Waves Ship Positions

Charlotte Roush

Owner: AEP River Operations LLC, Chesterfield, MO. More information available from US FCC via Universal Licensing System and Coast Guard Vessel Documentation Center.

Last reported at 2014-Dec-20 03:28 UTC. Time now 2014-Dec-21 16:38 UTC.
Position N 29°57' W 090°01'.

Length 35 m; draft 3 m.

Type: Towing. MMSI: 367362230.

Date/timePositionNaut miles runAvg speedWind from/ knotsBaromVisibWave heightAir tempDewpointWater temp
2014-Dec-20 03:28N 29°57' W 090°01'5 0.2
2014-Dec-19 02:13N 29°53' W 089°58'4 2.4
2014-Dec-19 00:24N 29°57' W 090°01'4 4.5
2014-Dec-18 23:34N 29°55' W 090°05'38 3.7
2014-Dec-18 13:15N 30°00' W 090°48'2 2.4
2014-Dec-18 12:31N 29°60' W 090°50'2 2.4
2014-Dec-18 11:33N 30°00' W 090°47'7 6.4
2014-Dec-18 10:31N 30°03' W 090°40'8 6.1
2014-Dec-18 09:15N 30°03' W 090°31'21 5.0
2014-Dec-18 05:10N 29°57' W 090°08'3 5.5
2014-Dec-18 04:33N 29°55' W 090°05'4 4.1
2014-Dec-18 03:33N 29°57' W 090°01'0 0.0
2014-Dec-18 02:33N 29°57' W 090°01'0 0.0
2014-Dec-18 01:27N 29°57' W 090°01'0 0.1
2014-Dec-18 00:28N 29°57' W 090°01'  
2014-Dec-15 08:22N 29°57' W 090°09'4 4.5
2014-Dec-15 07:29N 29°55' W 090°05'4 3.8
2014-Dec-15 06:33N 29°57' W 090°01'0 0.2
2014-Dec-15 05:32N 29°57' W 090°01'4 4.3
2014-Dec-15 04:33N 29°55' W 090°05'37 2.7
2014-Dec-14 15:08N 30°00' W 090°47'2 1.7
2014-Dec-14 14:08N 29°59' W 090°49'1 0.8
2014-Dec-14 13:24N 29°59' W 090°48'5 3.9
2014-Dec-14 12:10N 30°01' W 090°43'3 4.1
2014-Dec-14 11:32N 30°02' W 090°41'4 3.5
2014-Dec-14 10:19N 30°03' W 090°36'23 1.0
2014-Dec-13 10:24N 29°56' W 090°10'2 2.2
2014-Dec-13 09:33N 29°56' W 090°08'4 3.5
2014-Dec-13 08:33N 29°55' W 090°04'3 0.6
2014-Dec-13 03:11N 29°57' W 090°01'0 0.0
2014-Dec-13 02:16N 29°57' W 090°01'0 0.1
2014-Dec-13 01:30N 29°57' W 090°01'0 0.2
2014-Dec-13 00:19N 29°57' W 090°01'2 0.1
2014-Dec-12 00:31N 29°55' W 089°58'2 2.5
2014-Dec-11 23:33N 29°57' W 090°01'1 0.6
2014-Dec-11 22:32N 29°57' W 090°01'4 3.9
2014-Dec-11 21:31N 29°55' W 090°05'28 3.5
2014-Dec-11 13:30N 30°02' W 090°36'0 0.0
2014-Dec-11 12:17N 30°02' W 090°36'0 0.0
2014-Dec-11 10:25N 30°02' W 090°36'2 1.6
2014-Dec-11 09:22N 30°03' W 090°38'7 5.5
2014-Dec-11 08:08N 30°01' W 090°46'2 3.0
2014-Dec-11 07:30N 30°00' W 090°48'0 0.1
2014-Dec-11 05:21N 30°00' W 090°48'1 0.1
2014-Dec-11 01:33N 29°60' W 090°48'  
Track history (hours):
 
Tides and Currents Weather Stations Pressure Air Temp Water Temp Dewpoint Dewpoint Depression Visibility Wind Speed Wind Dir Waves Ship Positions

Charlotte Roush

Owner: AEP River Operations LLC, Chesterfield, MO. More information available from US FCC via Universal Licensing System and Coast Guard Vessel Documentation Center.

Last reported at 2014-Dec-20 03:28 UTC. Time now 2014-Dec-21 16:38 UTC.
Position N 29°57' W 090°01'.

Length 35 m; draft 3 m.

Type: Towing. MMSI: 367362230.

Date/timePositionNaut miles runAvg speedWind from/ knotsBaromVisibWave heightAir tempDewpointWater temp
2014-Dec-20 03:28N 29°57' W 090°01'5 0.2
2014-Dec-19 02:13N 29°53' W 089°58'4 2.4
2014-Dec-19 00:24N 29°57' W 090°01'4 4.5
2014-Dec-18 23:34N 29°55' W 090°05'38 3.7
2014-Dec-18 13:15N 30°00' W 090°48'2 2.4
2014-Dec-18 12:31N 29°60' W 090°50'2 2.4
2014-Dec-18 11:33N 30°00' W 090°47'7 6.4
2014-Dec-18 10:31N 30°03' W 090°40'8 6.1
2014-Dec-18 09:15N 30°03' W 090°31'21 5.0
2014-Dec-18 05:10N 29°57' W 090°08'3 5.5
2014-Dec-18 04:33N 29°55' W 090°05'4 4.1
2014-Dec-18 03:33N 29°57' W 090°01'0 0.0
2014-Dec-18 02:33N 29°57' W 090°01'0 0.0
2014-Dec-18 01:27N 29°57' W 090°01'0 0.1
2014-Dec-18 00:28N 29°57' W 090°01'  
2014-Dec-15 08:22N 29°57' W 090°09'4 4.5
2014-Dec-15 07:29N 29°55' W 090°05'4 3.8
2014-Dec-15 06:33N 29°57' W 090°01'0 0.2
2014-Dec-15 05:32N 29°57' W 090°01'4 4.3
2014-Dec-15 04:33N 29°55' W 090°05'37 2.7
2014-Dec-14 15:08N 30°00' W 090°47'2 1.7
2014-Dec-14 14:08N 29°59' W 090°49'1 0.8
2014-Dec-14 13:24N 29°59' W 090°48'5 3.9
2014-Dec-14 12:10N 30°01' W 090°43'3 4.1
2014-Dec-14 11:32N 30°02' W 090°41'4 3.5
2014-Dec-14 10:19N 30°03' W 090°36'23 1.0
2014-Dec-13 10:24N 29°56' W 090°10'2 2.2
2014-Dec-13 09:33N 29°56' W 090°08'4 3.5
2014-Dec-13 08:33N 29°55' W 090°04'3 0.6
2014-Dec-13 03:11N 29°57' W 090°01'0 0.0
2014-Dec-13 02:16N 29°57' W 090°01'0 0.1
2014-Dec-13 01:30N 29°57' W 090°01'0 0.2
2014-Dec-13 00:19N 29°57' W 090°01'2 0.1
2014-Dec-12 00:31N 29°55' W 089°58'2 2.5
2014-Dec-11 23:33N 29°57' W 090°01'1 0.6
2014-Dec-11 22:32N 29°57' W 090°01'4 3.9
2014-Dec-11 21:31N 29°55' W 090°05'28 3.5
2014-Dec-11 13:30N 30°02' W 090°36'0 0.0
2014-Dec-11 12:17N 30°02' W 090°36'0 0.0
2014-Dec-11 10:25N 30°02' W 090°36'2 1.6
2014-Dec-11 09:22N 30°03' W 090°38'7 5.5
2014-Dec-11 08:08N 30°01' W 090°46'2 3.0
2014-Dec-11 07:30N 30°00' W 090°48'0 0.1
2014-Dec-11 05:21N 30°00' W 090°48'1 0.1
2014-Dec-11 01:33N 29°60' W 090°48'  

Dump ship's entire track history